Second Valley 's weather forecast for the week

Current weather in Second Valley

Weather

Sunny
Cloud cover 0%

Temperature

17°C
Minimum 16°C
Maximum 17°C

Wind

15 km/h
Wind gust 21 km/h

Humidity

81%
Dew point 13°C
Temp Feels Precip Humidity
00:00am Partly cloudy 17°C 17°C 0 mm 69%
03:00am Partly cloudy 16°C 17°C 0 mm 82%
06:00am Partly cloudy 16°C 16°C 0 mm 87%
09:00am Partly cloudy 16°C 16°C 0 mm 85%
12:00pm Sunny 17°C 17°C 0 mm 81%
15:00pm Sunny 17°C 17°C 0 mm 81%
18:00pm Partly cloudy 16°C 16°C 0 mm 86%
21:00pm Partly cloudy 16°C 16°C 0 mm 85%
Temp Feels Precip Humidity
00:00am Clear 16°C 16°C 0 mm 83%
03:00am Partly cloudy 16°C 16°C 0 mm 78%
06:00am Partly cloudy 16°C 16°C 0 mm 74%
09:00am Partly cloudy 16°C 16°C 0 mm 78%
12:00pm Overcast 17°C 17°C 0 mm 79%
15:00pm Partly cloudy 18°C 18°C 0 mm 76%
18:00pm Partly cloudy 18°C 18°C 0 mm 71%
21:00pm Partly cloudy 18°C 18°C 0 mm 69%
Temp Feels Precip Humidity
00:00am Partly cloudy 18°C 18°C 0 mm 66%
03:00am Partly cloudy 18°C 18°C 0 mm 71%
06:00am Patchy rain possible 17°C 18°C 0.1 mm 79%
09:00am Thundery outbreaks possible 18°C 18°C 0 mm 79%
12:00pm Patchy rain possible 18°C 18°C 0.2 mm 82%
15:00pm Partly cloudy 18°C 18°C 0 mm 82%
18:00pm Patchy rain possible 17°C 17°C 0.3 mm 83%
21:00pm Partly cloudy 16°C 16°C 0 mm 85%
Temp Feels Precip Humidity
00:00am Patchy rain possible 15°C 15°C 0.1 mm 81%
03:00am Cloudy 15°C 16°C 0 mm 72%
06:00am Light rain shower 16°C 13°C 0.2 mm 76%
09:00am Partly cloudy 15°C 13°C 0 mm 68%
12:00pm Partly cloudy 16°C 16°C 0 mm 72%
15:00pm Overcast 16°C 16°C 0 mm 74%
18:00pm Light rain shower 16°C 16°C 1.1 mm 77%
21:00pm Cloudy 17°C 17°C 0 mm 79%
Temp Feels Precip Humidity
00:00am Light rain shower 17°C 17°C 0.4 mm 76%
03:00am Cloudy 14°C 16°C 0 mm 69%
06:00am Light rain shower 13°C 12°C 0.4 mm 68%
09:00am Overcast 14°C 12°C 0 mm 69%
12:00pm Light rain shower 14°C 11°C 0.6 mm 64%
15:00pm Overcast 14°C 11°C 0 mm 57%
18:00pm Light rain shower 13°C 11°C 0.3 mm 62%
21:00pm Partly cloudy 13°C 10°C 0 mm 65%
Temp Feels Precip Humidity
00:00am Patchy rain possible 13°C 11°C 0.2 mm 65%
03:00am Partly cloudy 13°C 10°C 0 mm 66%
06:00am Light rain shower 15°C 11°C 0.2 mm 64%
09:00am Overcast 13°C 11°C 0 mm 65%
12:00pm Patchy rain possible 13°C 11°C 0.1 mm 68%
15:00pm Overcast 14°C 12°C 0 mm 71%
18:00pm Light rain shower 15°C 15°C 1.4 mm 72%
21:00pm Partly cloudy 15°C 15°C 0 mm 71%
Temp Feels Precip Humidity
00:00am Light rain shower 13°C 9°C 1.6 mm 70%
03:00am Partly cloudy 13°C 9°C 0 mm 61%
06:00am Patchy rain possible 13°C 9°C 0.2 mm 64%
09:00am Partly cloudy 13°C 9°C 0 mm 66%
12:00pm Light rain shower 13°C 11°C 0.8 mm 65%
15:00pm Partly cloudy 13°C 11°C 0 mm 64%
18:00pm Light rain shower 13°C 11°C 0.4 mm 71%
21:00pm Partly cloudy 13°C 11°C 0 mm 67%

Save your favorite locations, unlock more tidal information, less advertising and more...

Sign in to Tideschart with your Facebook account in one easy click (it's FREE!)